createdAt,value
2023-04-18T00:01:30.536Z,7.33
2023-04-18T00:03:58.068Z,7.00
2023-04-18T00:06:26.174Z,7.00
2023-04-18T00:08:53.438Z,7.17
2023-04-18T00:11:20.924Z,7.80
2023-04-18T00:13:48.233Z,7.00
2023-04-18T00:16:15.510Z,7.37
2023-04-18T00:18:42.894Z,7.80
2023-04-18T00:21:10.093Z,7.17
2023-04-18T00:23:37.281Z,7.70
2023-04-18T00:26:04.873Z,7.33
2023-04-18T00:28:32.102Z,7.30
2023-04-18T00:30:59.353Z,7.10
2023-04-18T00:33:26.735Z,7.47
2023-04-18T00:35:54.716Z,8.57
2023-04-18T00:38:22.142Z,8.40
2023-04-18T00:40:49.292Z,7.70
2023-04-18T00:43:17.006Z,7.40
2023-04-18T00:45:44.554Z,7.10
2023-04-18T00:48:11.899Z,7.90
2023-04-18T00:50:40.611Z,7.27
2023-04-18T00:53:08.204Z,8.77
2023-04-18T00:55:36.175Z,7.80
2023-04-18T00:58:03.841Z,8.80
2023-04-18T01:00:31.312Z,8.20
2023-04-18T01:02:59.804Z,7.77
2023-04-18T01:05:27.358Z,7.70
2023-04-18T01:08:00.412Z,8.53
2023-04-18T01:10:28.023Z,8.77
2023-04-18T01:13:13.819Z,8.80
2023-04-18T01:15:42.113Z,8.23
2023-04-18T01:18:09.923Z,9.87
2023-04-18T01:20:38.437Z,8.57
2023-04-18T01:23:05.813Z,9.57
2023-04-18T01:25:33.668Z,9.43
2023-04-18T01:28:01.032Z,9.33
2023-04-18T01:30:28.328Z,9.70
2023-04-18T01:32:55.549Z,8.80
2023-04-18T01:35:23.085Z,9.13
2023-04-18T01:37:50.661Z,9.73
2023-04-18T01:40:17.852Z,9.67
2023-04-18T01:42:44.984Z,9.77
2023-04-18T01:45:13.260Z,10.20
2023-04-18T01:47:40.680Z,10.13
2023-04-18T01:50:08.219Z,10.33
2023-04-18T01:52:35.445Z,10.13
2023-04-18T01:55:03.792Z,10.03
2023-04-18T01:57:31.314Z,9.60
2023-04-18T01:59:58.499Z,10.03
2023-04-18T02:02:25.854Z,10.20
2023-04-18T02:04:53.127Z,11.30
2023-04-18T02:07:20.266Z,9.80
2023-04-18T02:09:47.459Z,11.03
2023-04-18T02:12:14.824Z,10.30
2023-04-18T02:14:42.249Z,10.90
2023-04-18T02:17:09.428Z,10.73
2023-04-18T02:19:36.603Z,11.50
2023-04-18T02:22:03.805Z,11.00
2023-04-18T02:24:31.265Z,10.97
2023-04-18T02:26:58.395Z,11.03
2023-04-18T02:29:25.762Z,11.20
2023-04-18T02:31:53.132Z,11.13
2023-04-18T02:34:20.345Z,11.00
2023-04-18T02:36:47.661Z,10.93
2023-04-18T02:39:15.028Z,11.03
2023-04-18T02:41:42.425Z,10.80
2023-04-18T02:44:09.655Z,11.47
2023-04-18T02:46:36.831Z,11.53
2023-04-18T02:49:04.033Z,11.23
2023-04-18T02:51:31.389Z,11.77
2023-04-18T02:53:58.745Z,11.63
2023-04-18T02:56:25.974Z,12.37
2023-04-18T02:58:53.188Z,12.07
2023-04-18T03:01:21.110Z,10.93
2023-04-18T03:03:48.318Z,11.90
2023-04-18T03:06:15.805Z,12.67
2023-04-18T03:08:43.126Z,11.70
2023-04-18T03:11:10.359Z,11.20
2023-04-18T03:13:37.508Z,11.10
2023-04-18T03:16:04.933Z,12.07
2023-04-18T03:18:32.188Z,12.33
2023-04-18T03:20:59.409Z,11.80
2023-04-18T03:23:27.005Z,11.60
2023-04-18T03:25:54.207Z,12.30
2023-04-18T03:28:21.366Z,12.23
2023-04-18T03:30:48.664Z,12.10
2023-04-18T03:33:17.295Z,11.63
2023-04-18T03:35:44.952Z,11.20
2023-04-18T03:38:12.194Z,12.03
2023-04-18T03:40:39.761Z,12.00
2023-04-18T03:43:06.915Z,12.33
2023-04-18T03:45:34.333Z,12.30
2023-04-18T03:48:01.511Z,12.50
2023-04-18T03:50:29.010Z,11.57
2023-04-18T03:52:56.310Z,11.63
2023-04-18T03:55:23.453Z,12.47
2023-04-18T03:57:50.578Z,12.23
2023-04-18T04:00:17.815Z,11.70
2023-04-18T04:02:45.250Z,12.43
2023-04-18T04:05:12.670Z,13.17
2023-04-18T04:07:39.912Z,13.10
2023-04-18T04:10:07.310Z,13.07
2023-04-18T04:12:34.540Z,12.67
2023-04-18T04:15:01.679Z,12.67
2023-04-18T04:17:31.977Z,13.03
2023-04-18T04:19:59.245Z,11.73
2023-04-18T04:22:26.699Z,12.40
2023-04-18T04:24:53.895Z,12.57
2023-04-18T04:27:21.037Z,12.53
2023-04-18T04:29:49.271Z,12.47
2023-04-18T04:32:16.989Z,12.20
2023-04-18T04:34:44.168Z,12.03
2023-04-18T04:37:13.957Z,11.77
2023-04-18T04:39:41.228Z,12.20
2023-04-18T04:42:09.648Z,11.37
2023-04-18T04:44:37.490Z,12.00
2023-04-18T04:47:04.978Z,12.27
2023-04-18T04:49:32.175Z,12.43
2023-04-18T04:52:01.416Z,11.83
2023-04-18T04:54:29.529Z,11.97
2023-04-18T04:56:56.975Z,12.03
2023-04-18T04:59:24.122Z,12.17
2023-04-18T05:01:51.644Z,12.17
2023-04-18T05:04:19.665Z,12.23
2023-04-18T05:06:47.286Z,11.70
2023-04-18T05:09:14.516Z,12.60
2023-04-18T05:11:41.750Z,11.40
2023-04-18T05:14:08.921Z,11.43
2023-04-18T05:16:36.432Z,11.57
2023-04-18T05:19:03.609Z,12.33
2023-04-18T05:21:31.317Z,11.47
2023-04-18T05:23:58.463Z,11.60
2023-04-18T05:26:25.671Z,11.10
2023-04-18T05:28:52.960Z,11.30
2023-04-18T05:31:20.406Z,12.03
2023-04-18T05:33:47.631Z,12.47
2023-04-18T05:36:14.977Z,12.10
2023-04-18T05:38:42.130Z,11.47
2023-04-18T05:41:09.409Z,11.63
2023-04-18T05:43:36.576Z,11.53
2023-04-18T05:46:03.721Z,10.90
2023-04-18T05:48:31.216Z,11.53
2023-04-18T05:50:58.521Z,11.47
2023-04-18T05:53:25.676Z,11.60
2023-04-18T05:55:53.120Z,10.83
2023-04-18T05:58:20.327Z,10.97
2023-04-18T06:00:48.255Z,11.20
2023-04-18T06:03:16.038Z,10.67
2023-04-18T06:05:43.487Z,11.17
2023-04-18T06:08:10.852Z,11.80
2023-04-18T06:10:39.256Z,11.07
2023-04-18T06:13:06.590Z,11.07
2023-04-18T06:15:33.769Z,11.27
2023-04-18T06:18:01.076Z,11.63
2023-04-18T06:20:28.471Z,10.77
2023-04-18T06:22:55.851Z,11.40
2023-04-18T06:25:32.801Z,11.07
2023-04-18T06:28:00.322Z,10.67
2023-04-18T06:30:27.505Z,10.70
2023-04-18T06:32:54.973Z,10.83
2023-04-18T06:35:22.918Z,11.03
2023-04-18T06:37:51.296Z,11.07
2023-04-18T06:40:18.516Z,10.23
2023-04-18T06:42:45.885Z,11.33
2023-04-18T06:45:13.137Z,10.33
2023-04-18T06:47:41.261Z,10.67
2023-04-18T06:50:09.006Z,10.87
2023-04-18T06:52:40.472Z,11.43
2023-04-18T06:55:09.618Z,11.40
2023-04-18T06:57:36.997Z,10.23
2023-04-18T07:00:05.040Z,10.67
2023-04-18T07:02:32.696Z,11.17
2023-04-18T07:05:00.080Z,11.37
2023-04-18T07:07:27.337Z,10.63
2023-04-18T07:09:54.992Z,10.53
2023-04-18T07:12:22.266Z,10.07
2023-04-18T07:14:49.598Z,10.80
2023-04-18T07:17:17.740Z,10.43
2023-04-18T07:19:45.076Z,11.10
2023-04-18T07:22:12.527Z,10.53
2023-04-18T07:24:40.118Z,10.97
2023-04-18T07:27:09.395Z,11.10
2023-04-18T07:29:36.814Z,10.50
2023-04-18T07:32:05.643Z,10.53
2023-04-18T07:34:36.133Z,10.33
2023-04-18T07:37:03.400Z,10.97
2023-04-18T07:39:36.075Z,9.97
2023-04-18T07:42:06.668Z,11.37
2023-04-18T07:44:36.497Z,10.33
2023-04-18T07:47:04.580Z,10.80
2023-04-18T07:49:31.927Z,11.17
2023-04-18T07:51:59.308Z,10.23
2023-04-18T07:54:26.579Z,11.37
2023-04-18T07:56:53.888Z,10.67
2023-04-18T07:59:21.052Z,10.53
2023-04-18T08:01:48.412Z,10.77
2023-04-18T08:04:15.887Z,10.27
2023-04-18T08:06:43.222Z,10.13
2023-04-18T08:09:10.948Z,9.90
2023-04-18T08:11:39.071Z,9.90
2023-04-18T08:14:06.293Z,11.13
2023-04-18T08:16:33.504Z,10.90
2023-04-18T08:19:00.666Z,10.33
2023-04-18T08:21:27.919Z,10.50
2023-04-18T08:23:55.552Z,10.90
2023-04-18T08:26:22.711Z,10.83
2023-04-18T08:28:50.053Z,11.73
2023-04-18T08:31:17.394Z,10.47
2023-04-18T08:33:44.601Z,9.33
2023-04-18T08:36:13.300Z,11.10
2023-04-18T08:38:40.594Z,10.57
2023-04-18T08:41:08.967Z,11.00
2023-04-18T08:43:36.187Z,11.27
2023-04-18T08:46:03.558Z,11.20
2023-04-18T08:48:31.025Z,10.37
2023-04-18T08:50:59.338Z,10.60
2023-04-18T08:53:27.540Z,10.03
2023-04-18T08:55:56.304Z,10.63
2023-04-18T08:58:24.236Z,8.27
2023-04-18T09:00:52.390Z,10.87
2023-04-18T09:03:39.530Z,9.87
2023-04-18T09:06:08.439Z,9.90
2023-04-18T09:08:36.358Z,9.27
2023-04-18T09:11:22.933Z,9.37
2023-04-18T09:13:50.345Z,8.93
2023-04-18T09:16:20.835Z,9.48
2023-04-18T09:19:11.987Z,9.32
2023-04-18T09:21:41.009Z,9.37
2023-04-18T09:24:24.118Z,9.98
2023-04-18T09:26:53.861Z,8.80
2023-04-18T09:29:22.586Z,8.82
2023-04-18T09:32:02.655Z,10.60
2023-04-18T09:34:30.010Z,9.68
2023-04-18T09:37:13.367Z,8.85
2023-04-18T09:39:43.632Z,8.80
2023-04-18T09:42:11.507Z,8.80
2023-04-18T09:44:39.510Z,9.55
2023-04-18T09:47:10.300Z,8.70
2023-04-18T09:49:37.611Z,8.90
2023-04-18T09:52:07.193Z,8.93
2023-04-18T09:54:38.286Z,9.07
2023-04-18T09:57:07.402Z,8.73
2023-04-18T09:59:40.926Z,8.32
2023-04-18T10:02:14.749Z,10.38
2023-04-18T10:04:42.855Z,10.27
2023-04-18T10:07:11.209Z,11.00
2023-04-18T10:09:39.558Z,11.02
2023-04-18T10:12:06.998Z,11.05
2023-04-18T10:14:34.399Z,11.20
2023-04-18T10:17:02.228Z,10.93
2023-04-18T10:19:30.757Z,11.55
2023-04-18T10:21:59.084Z,10.55
2023-04-18T10:24:45.000Z,10.38
2023-04-18T10:27:12.190Z,10.88
2023-04-18T10:29:52.562Z,10.52
2023-04-18T10:32:20.921Z,11.70
2023-04-18T10:34:48.247Z,11.00
2023-04-18T10:37:15.878Z,11.07
2023-04-18T10:39:50.582Z,10.45
2023-04-18T10:42:37.152Z,10.13
2023-04-18T10:45:20.669Z,9.57
2023-04-18T10:47:47.984Z,10.43
2023-04-18T10:50:15.554Z,9.13
2023-04-18T10:52:43.469Z,8.95
2023-04-18T10:55:24.720Z,10.43
2023-04-18T10:57:56.119Z,9.55
2023-04-18T11:00:24.066Z,9.07
2023-04-18T11:02:52.789Z,10.15
2023-04-18T11:05:24.730Z,9.10
2023-04-18T11:07:52.181Z,9.25
2023-04-18T11:10:23.924Z,9.63
2023-04-18T11:12:51.716Z,8.75
2023-04-18T11:15:23.141Z,9.15
2023-04-18T11:17:58.070Z,8.77
2023-04-18T11:20:25.672Z,9.77
2023-04-18T11:22:56.194Z,7.82
2023-04-18T11:25:28.641Z,9.48
2023-04-18T11:27:56.158Z,8.85
2023-04-18T11:30:23.584Z,8.68
2023-04-18T11:32:51.778Z,8.20
2023-04-18T11:35:19.038Z,9.20
2023-04-18T11:37:50.262Z,9.70
2023-04-18T11:40:18.285Z,9.25
2023-04-18T11:42:54.837Z,8.88
2023-04-18T11:45:45.271Z,8.45
2023-04-18T11:48:12.652Z,9.65
2023-04-18T11:50:39.920Z,9.25
2023-04-18T11:53:07.138Z,10.40
2023-04-18T11:55:34.404Z,9.38
2023-04-18T11:58:02.360Z,9.07
2023-04-18T12:00:39.790Z,8.93
2023-04-18T12:03:08.929Z,8.65
2023-04-18T12:05:38.639Z,8.63
2023-04-18T12:08:19.076Z,9.27
2023-04-18T12:10:53.217Z,8.93
2023-04-18T12:13:25.786Z,9.30
2023-04-18T12:15:54.543Z,9.85
2023-04-18T12:18:21.894Z,9.30
2023-04-18T12:20:50.612Z,8.25
2023-04-18T12:23:46.000Z,8.18
2023-04-18T12:26:14.164Z,8.82
2023-04-18T12:28:44.985Z,8.25
2023-04-18T12:31:12.297Z,8.55
2023-04-18T12:33:39.648Z,7.32
2023-04-18T12:36:08.546Z,8.63
2023-04-18T12:38:36.276Z,8.50
2023-04-18T12:41:03.603Z,7.60
2023-04-18T12:43:30.836Z,8.27
2023-04-18T12:45:59.500Z,7.90
2023-04-18T12:48:26.868Z,8.43
2023-04-18T12:50:54.280Z,8.70
2023-04-18T12:53:21.544Z,7.95
2023-04-18T12:55:48.704Z,8.60
2023-04-18T12:58:18.654Z,8.73
2023-04-18T13:00:46.249Z,8.15
2023-04-18T13:03:13.788Z,8.75
2023-04-18T13:05:41.347Z,7.93
2023-04-18T13:08:17.263Z,7.80
2023-04-18T13:10:45.757Z,8.07
2023-04-18T13:13:12.987Z,7.93
2023-04-18T13:15:40.558Z,8.20
2023-04-18T13:18:08.052Z,7.95
2023-04-18T13:20:36.654Z,7.97
2023-04-18T13:23:04.044Z,7.80
2023-04-18T13:25:31.391Z,7.78
2023-04-18T13:28:00.771Z,8.40
2023-04-18T13:30:28.257Z,8.45
2023-04-18T13:32:55.597Z,7.80
2023-04-18T13:35:22.794Z,7.00
2023-04-18T13:37:49.969Z,7.07
2023-04-18T13:40:17.310Z,7.45
2023-04-18T13:42:44.581Z,8.25
2023-04-18T13:45:11.861Z,7.97
2023-04-18T13:47:39.473Z,7.28
2023-04-18T13:50:07.199Z,7.57
2023-04-18T13:52:34.483Z,7.60
2023-04-18T13:55:01.904Z,8.40
2023-04-18T13:57:32.170Z,7.18
2023-04-18T13:59:59.560Z,8.57
2023-04-18T14:02:27.042Z,8.23
2023-04-18T14:04:54.948Z,7.25
2023-04-18T14:07:22.204Z,7.88
2023-04-18T14:09:49.335Z,7.65
2023-04-18T14:12:16.624Z,8.23
2023-04-18T14:14:44.303Z,7.65
2023-04-18T14:17:11.635Z,7.97
2023-04-18T14:19:38.909Z,7.90
2023-04-18T14:22:07.713Z,8.55
2023-04-18T14:24:36.449Z,7.53
2023-04-18T14:27:03.823Z,7.50
2023-04-18T14:29:30.998Z,8.32
2023-04-18T14:31:58.204Z,7.47
2023-04-18T14:34:25.974Z,7.78
2023-04-18T14:36:53.176Z,7.93
2023-04-18T14:39:20.350Z,7.78
2023-04-18T14:41:47.542Z,7.47
2023-04-18T14:44:15.544Z,7.93
2023-04-18T14:46:43.333Z,8.13
2023-04-18T14:49:10.823Z,8.63
2023-04-18T14:51:37.975Z,10.52
2023-04-18T14:54:05.537Z,8.52
2023-04-18T14:56:32.700Z,9.40
2023-04-18T14:58:59.851Z,8.45
2023-04-18T15:01:27.025Z,8.50
2023-04-18T15:03:54.497Z,7.72
2023-04-18T15:06:23.202Z,9.25
2023-04-18T15:08:50.472Z,8.30
2023-04-18T15:11:17.689Z,8.55
2023-04-18T15:13:45.006Z,8.23
2023-04-18T15:16:12.680Z,7.55
2023-04-18T15:18:40.285Z,7.50
2023-04-18T15:21:07.513Z,6.85
2023-04-18T15:23:34.776Z,6.88
2023-04-18T15:26:01.937Z,6.90
2023-04-18T15:28:29.146Z,7.55
2023-04-18T15:30:56.324Z,7.28
2023-04-18T15:33:25.408Z,6.97
2023-04-18T15:35:52.669Z,7.65
2023-04-18T15:38:19.821Z,7.18
2023-04-18T15:40:47.123Z,6.95
2023-04-18T15:43:14.328Z,7.85
2023-04-18T15:45:44.271Z,6.93
2023-04-18T15:48:13.129Z,6.78
2023-04-18T15:50:45.118Z,8.38
2023-04-18T15:53:12.405Z,8.00
2023-04-18T15:55:39.581Z,7.97
2023-04-18T15:58:10.477Z,7.35
2023-04-18T16:00:37.908Z,6.78
2023-04-18T16:03:05.305Z,6.85
2023-04-18T16:05:32.703Z,8.05
2023-04-18T16:08:00.081Z,7.53
2023-04-18T16:10:27.517Z,7.75
2023-04-18T16:12:55.068Z,7.63
2023-04-18T16:15:22.245Z,8.45
2023-04-18T16:17:49.450Z,7.40
2023-04-18T16:20:16.735Z,7.72
2023-04-18T16:22:43.917Z,7.85
2023-04-18T16:25:11.289Z,7.65
2023-04-18T16:27:38.892Z,8.13
2023-04-18T16:30:06.581Z,7.22
2023-04-18T16:32:34.009Z,7.60
2023-04-18T16:35:01.192Z,7.18
2023-04-18T16:37:28.404Z,7.18
2023-04-18T16:39:55.990Z,7.20
2023-04-18T16:42:23.195Z,8.15
2023-04-18T16:44:50.600Z,7.30
2023-04-18T16:47:17.760Z,7.47
2023-04-18T16:49:46.672Z,7.65
2023-04-18T16:52:14.389Z,7.60
2023-04-18T16:54:41.839Z,7.60
2023-04-18T16:57:09.071Z,7.60
2023-04-18T16:59:36.307Z,7.88
2023-04-18T17:02:03.588Z,7.88
2023-04-18T17:04:32.580Z,8.70
2023-04-18T17:07:00.808Z,8.23
2023-04-18T17:09:28.008Z,8.52
2023-04-18T17:11:55.190Z,8.05
2023-04-18T17:14:22.321Z,7.90
2023-04-18T17:16:51.342Z,8.90
2023-04-18T17:19:20.032Z,9.98
2023-04-18T17:21:49.062Z,12.73
2023-04-18T17:24:18.615Z,11.70
2023-04-18T17:26:45.998Z,12.65
2023-04-18T17:29:13.572Z,9.63
2023-04-18T17:31:41.245Z,9.50
2023-04-18T17:34:08.738Z,8.63
2023-04-18T17:36:35.984Z,9.05
2023-04-18T17:39:06.712Z,9.95
2023-04-18T17:41:37.864Z,9.18
2023-04-18T17:44:05.596Z,9.20
2023-04-18T17:46:33.164Z,9.52
2023-04-18T17:49:00.607Z,8.00
2023-04-18T17:51:27.834Z,11.45
2023-04-18T17:53:55.093Z,10.57
2023-04-18T17:56:22.368Z,10.38
2023-04-18T17:58:49.995Z,9.50
2023-04-18T18:01:22.313Z,10.20
2023-04-18T18:03:50.405Z,11.88
2023-04-18T18:06:17.744Z,12.25
2023-04-18T18:08:45.107Z,9.93
2023-04-18T18:11:12.311Z,9.90
2023-04-18T18:13:39.590Z,9.25
2023-04-18T18:16:07.660Z,9.35
2023-04-18T18:18:35.364Z,10.23
2023-04-18T18:21:02.627Z,8.80
2023-04-18T18:23:30.173Z,8.55
2023-04-18T18:25:57.357Z,8.65
2023-04-18T18:28:24.527Z,8.07
2023-04-18T18:30:51.892Z,8.30
2023-04-18T18:33:19.172Z,8.35
2023-04-18T18:35:46.354Z,8.82
2023-04-18T18:38:18.519Z,8.05
2023-04-18T18:40:46.147Z,8.77
2023-04-18T18:43:13.563Z,8.40
2023-04-18T18:45:40.730Z,9.07
2023-04-18T18:48:08.874Z,8.80
2023-04-18T18:50:36.284Z,9.45
2023-04-18T18:53:04.071Z,8.30
2023-04-18T18:55:31.303Z,8.00
2023-04-18T18:57:58.478Z,8.23
2023-04-18T19:00:25.783Z,8.27
2023-04-18T19:02:53.077Z,8.25
2023-04-18T19:05:21.290Z,8.65
2023-04-18T19:07:49.183Z,10.65
2023-04-18T19:10:16.375Z,10.18
2023-04-18T19:12:43.959Z,10.13
2023-04-18T19:15:12.097Z,11.17
2023-04-18T19:17:39.485Z,14.98
2023-04-18T19:20:07.061Z,14.70
2023-04-18T19:22:34.267Z,11.77
2023-04-18T19:25:01.654Z,9.35
2023-04-18T19:27:28.924Z,9.30
2023-04-18T19:29:56.104Z,9.77
2023-04-18T19:32:23.357Z,9.82
2023-04-18T19:34:51.486Z,10.98
2023-04-18T19:37:18.712Z,9.20
2023-04-18T19:39:46.223Z,8.55
2023-04-18T19:42:13.555Z,9.05
2023-04-18T19:44:41.115Z,8.82
2023-04-18T19:47:11.817Z,9.55
2023-04-18T19:49:40.277Z,8.50
2023-04-18T19:52:10.534Z,9.63
2023-04-18T19:54:37.746Z,8.43
2023-04-18T19:57:06.254Z,8.20
2023-04-18T19:59:33.577Z,9.25
2023-04-18T20:02:05.007Z,7.90
2023-04-18T20:04:34.279Z,9.10
2023-04-18T20:07:04.791Z,8.67
2023-04-18T20:09:35.404Z,9.03
2023-04-18T20:12:02.682Z,9.07
2023-04-18T20:14:30.278Z,9.10
2023-04-18T20:17:00.929Z,10.27
2023-04-18T20:19:29.842Z,9.83
2023-04-18T20:21:57.312Z,10.40
2023-04-18T20:24:30.843Z,10.10
2023-04-18T20:27:04.599Z,9.37
2023-04-18T20:29:31.773Z,9.57
2023-04-18T20:32:06.669Z,8.83
2023-04-18T20:34:33.970Z,9.23
2023-04-18T20:37:03.164Z,8.87
2023-04-18T20:39:31.080Z,8.47
2023-04-18T20:42:04.202Z,8.60
2023-04-18T20:44:49.022Z,8.13
2023-04-18T20:47:19.340Z,7.87
2023-04-18T20:49:47.840Z,8.70
2023-04-18T20:52:28.124Z,7.87
2023-04-18T20:55:07.445Z,8.97
2023-04-18T20:57:34.722Z,9.47
2023-04-18T21:00:02.080Z,9.03
2023-04-18T21:02:32.636Z,9.93
2023-04-18T21:05:02.815Z,10.07
2023-04-18T21:07:31.177Z,8.87
2023-04-18T21:09:58.524Z,9.47
2023-04-18T21:12:52.189Z,10.03
2023-04-18T21:15:19.407Z,9.33
2023-04-18T21:17:46.628Z,9.97
2023-04-18T21:20:20.111Z,8.97
2023-04-18T21:22:47.254Z,8.77
2023-04-18T21:25:14.379Z,9.67
2023-04-18T21:27:41.720Z,8.80
2023-04-18T21:30:24.070Z,8.47
2023-04-18T21:32:51.615Z,8.33
2023-04-18T21:35:21.327Z,8.53
2023-04-18T21:37:49.991Z,8.50
2023-04-18T21:40:17.220Z,9.00
2023-04-18T21:42:44.846Z,8.83
2023-04-18T21:45:12.168Z,8.93
2023-04-18T21:47:39.528Z,8.03
2023-04-18T21:50:06.984Z,8.17
2023-04-18T21:52:34.161Z,8.57
2023-04-18T21:55:01.611Z,9.07
2023-04-18T21:57:28.840Z,8.90
2023-04-18T21:59:57.938Z,8.87
2023-04-18T22:02:25.947Z,8.53
2023-04-18T22:04:53.249Z,9.33
2023-04-18T22:07:20.790Z,8.67
2023-04-18T22:09:48.062Z,8.63
2023-04-18T22:12:15.892Z,8.80
2023-04-18T22:14:48.206Z,7.43
2023-04-18T22:17:15.350Z,8.33
2023-04-18T22:19:44.466Z,7.57
2023-04-18T22:22:12.099Z,8.33
2023-04-18T22:24:39.276Z,7.57
2023-04-18T22:27:06.803Z,7.60
2023-04-18T22:29:33.985Z,7.50
2023-04-18T22:32:01.193Z,7.93
2023-04-18T22:34:28.834Z,7.13
2023-04-18T22:36:56.199Z,7.57
2023-04-18T22:39:26.638Z,7.03
2023-04-18T22:41:53.835Z,7.43
2023-04-18T22:44:20.995Z,7.83
2023-04-18T22:46:48.287Z,7.67
2023-04-18T22:49:15.806Z,8.07
2023-04-18T22:51:43.952Z,7.33
2023-04-18T22:54:11.506Z,7.97
2023-04-18T22:56:38.723Z,7.57
2023-04-18T22:59:06.019Z,7.97
2023-04-18T23:01:33.237Z,7.73
2023-04-18T23:04:00.670Z,7.47
2023-04-18T23:06:28.630Z,7.27
2023-04-18T23:08:55.888Z,6.73
2023-04-18T23:11:23.039Z,6.30
2023-04-18T23:13:50.473Z,5.60
2023-04-18T23:16:17.844Z,5.00
2023-04-18T23:18:45.211Z,4.90
2023-04-18T23:21:12.795Z,5.03
2023-04-18T23:23:40.088Z,5.00
2023-04-18T23:26:16.999Z,4.53
2023-04-18T23:28:44.196Z,4.13
2023-04-18T23:31:11.644Z,4.80
2023-04-18T23:33:39.358Z,4.50
2023-04-18T23:36:06.674Z,4.63
2023-04-18T23:38:34.001Z,4.00
2023-04-18T23:41:01.606Z,3.73
2023-04-18T23:43:28.855Z,4.27
2023-04-18T23:45:56.011Z,4.27
2023-04-18T23:48:23.462Z,3.97
2023-04-18T23:50:52.477Z,4.10
2023-04-18T23:53:20.567Z,3.90
2023-04-18T23:55:50.599Z,3.87
2023-04-18T23:58:18.156Z,4.20
